sensor_id;sensor_type;location;lat;lon;timestamp;temperature;humidity
74901;DHT22;63461;51.416;6.758;2023-02-12T00:00:59;8.50;99.90
74901;DHT22;63461;51.416;6.758;2023-02-12T00:03:24;8.60;99.90
74901;DHT22;63461;51.416;6.758;2023-02-12T00:05:50;8.50;99.90
74901;DHT22;63461;51.416;6.758;2023-02-12T00:08:16;8.60;99.90
74901;DHT22;63461;51.416;6.758;2023-02-12T00:10:42;8.60;99.90
74901;DHT22;63461;51.416;6.758;2023-02-12T00:13:11;8.60;99.90
74901;DHT22;63461;51.416;6.758;2023-02-12T00:15:41;8.60;99.90
74901;DHT22;63461;51.416;6.758;2023-02-12T00:18:07;8.60;99.90
74901;DHT22;63461;51.416;6.758;2023-02-12T00:20:33;8.60;99.90
74901;DHT22;63461;51.416;6.758;2023-02-12T00:22:59;8.60;99.90
74901;DHT22;63461;51.416;6.758;2023-02-12T00:25:24;8.60;99.90
74901;DHT22;63461;51.416;6.758;2023-02-12T00:27:50;8.60;99.90
74901;DHT22;63461;51.416;6.758;2023-02-12T00:30:17;8.60;99.90
74901;DHT22;63461;51.416;6.758;2023-02-12T00:32:44;8.60;99.90
74901;DHT22;63461;51.416;6.758;2023-02-12T00:35:11;8.60;99.90
74901;DHT22;63461;51.416;6.758;2023-02-12T00:37:38;8.60;99.90
74901;DHT22;63461;51.416;6.758;2023-02-12T00:40:05;8.60;99.90
74901;DHT22;63461;51.416;6.758;2023-02-12T00:42:31;8.60;99.90
74901;DHT22;63461;51.416;6.758;2023-02-12T00:44:57;8.60;99.90
74901;DHT22;63461;51.416;6.758;2023-02-12T00:47:22;8.60;99.90
74901;DHT22;63461;51.416;6.758;2023-02-12T00:49:49;8.60;99.90
74901;DHT22;63461;51.416;6.758;2023-02-12T00:52:14;8.60;99.90
74901;DHT22;63461;51.416;6.758;2023-02-12T00:54:40;8.60;99.90
74901;DHT22;63461;51.416;6.758;2023-02-12T00:57:06;8.60;99.90
74901;DHT22;63461;51.416;6.758;2023-02-12T00:59:31;8.60;99.90
74901;DHT22;63461;51.416;6.758;2023-02-12T01:02:00;8.60;99.90
74901;DHT22;63461;51.416;6.758;2023-02-12T01:04:26;8.60;99.90
74901;DHT22;63461;51.416;6.758;2023-02-12T01:06:53;8.60;99.90
74901;DHT22;63461;51.416;6.758;2023-02-12T01:09:19;8.60;99.90
74901;DHT22;63461;51.416;6.758;2023-02-12T01:11:47;8.50;99.90
74901;DHT22;63461;51.416;6.758;2023-02-12T01:14:12;8.60;99.90
74901;DHT22;63461;51.416;6.758;2023-02-12T01:16:38;8.60;99.90
74901;DHT22;63461;51.416;6.758;2023-02-12T01:19:04;8.50;99.90
74901;DHT22;63461;51.416;6.758;2023-02-12T01:21:33;8.50;99.90
74901;DHT22;63461;51.416;6.758;2023-02-12T01:23:59;8.60;99.90
74901;DHT22;63461;51.416;6.758;2023-02-12T01:26:26;8.60;99.90
74901;DHT22;63461;51.416;6.758;2023-02-12T01:28:55;8.60;99.90
74901;DHT22;63461;51.416;6.758;2023-02-12T01:31:24;8.60;99.90
74901;DHT22;63461;51.416;6.758;2023-02-12T01:33:52;8.50;99.90
74901;DHT22;63461;51.416;6.758;2023-02-12T01:36:19;8.50;99.90
74901;DHT22;63461;51.416;6.758;2023-02-12T01:38:47;8.50;99.90
74901;DHT22;63461;51.416;6.758;2023-02-12T01:41:17;8.50;99.90
74901;DHT22;63461;51.416;6.758;2023-02-12T01:43:45;8.50;99.90
74901;DHT22;63461;51.416;6.758;2023-02-12T01:46:12;8.50;99.90
74901;DHT22;63461;51.416;6.758;2023-02-12T01:48:44;8.50;99.90
74901;DHT22;63461;51.416;6.758;2023-02-12T01:51:16;8.50;99.90
74901;DHT22;63461;51.416;6.758;2023-02-12T01:53:49;8.50;99.90
74901;DHT22;63461;51.416;6.758;2023-02-12T01:56:16;8.50;99.90
74901;DHT22;63461;51.416;6.758;2023-02-12T01:58:45;8.50;99.90
74901;DHT22;63461;51.416;6.758;2023-02-12T02:01:23;8.50;99.90
74901;DHT22;63461;51.416;6.758;2023-02-12T02:04:00;8.50;99.90
74901;DHT22;63461;51.416;6.758;2023-02-12T02:06:47;8.50;99.90
74901;DHT22;63461;51.416;6.758;2023-02-12T02:09:16;8.50;99.90
74901;DHT22;63461;51.416;6.758;2023-02-12T02:11:43;8.50;99.90
74901;DHT22;63461;51.416;6.758;2023-02-12T02:14:27;8.40;99.90
74901;DHT22;63461;51.416;6.758;2023-02-12T02:20:15;8.50;99.90
74901;DHT22;63461;51.416;6.758;2023-02-12T02:34:09;8.50;99.90
74901;DHT22;63461;51.416;6.758;2023-02-12T02:39:18;8.50;99.90
74901;DHT22;63461;51.416;6.758;2023-02-12T02:41:52;8.50;99.90
74901;DHT22;63461;51.416;6.758;2023-02-12T02:44:33;8.40;99.90
74901;DHT22;63461;51.416;6.758;2023-02-12T02:47:02;8.40;99.90
74901;DHT22;63461;51.416;6.758;2023-02-12T02:49:51;8.40;99.90
74901;DHT22;63461;51.416;6.758;2023-02-12T02:52:27;8.40;99.90
74901;DHT22;63461;51.416;6.758;2023-02-12T02:54:55;8.40;99.90
74901;DHT22;63461;51.416;6.758;2023-02-12T02:57:40;8.40;99.90
74901;DHT22;63461;51.416;6.758;2023-02-12T03:00:15;8.40;99.90
74901;DHT22;63461;51.416;6.758;2023-02-12T03:02:48;8.40;99.90
74901;DHT22;63461;51.416;6.758;2023-02-12T03:05:39;8.40;99.90
74901;DHT22;63461;51.416;6.758;2023-02-12T03:08:13;8.40;99.90
74901;DHT22;63461;51.416;6.758;2023-02-12T03:10:44;8.40;99.90
74901;DHT22;63461;51.416;6.758;2023-02-12T03:13:20;8.40;99.90
74901;DHT22;63461;51.416;6.758;2023-02-12T03:15:52;8.40;99.90
74901;DHT22;63461;51.416;6.758;2023-02-12T03:18:23;8.40;99.90
74901;DHT22;63461;51.416;6.758;2023-02-12T03:20:56;8.50;99.90
74901;DHT22;63461;51.416;6.758;2023-02-12T03:23:26;8.40;99.90
74901;DHT22;63461;51.416;6.758;2023-02-12T03:28:30;8.40;99.90
74901;DHT22;63461;51.416;6.758;2023-02-12T03:31:22;8.40;99.90
74901;DHT22;63461;51.416;6.758;2023-02-12T03:36:37;8.40;99.90
74901;DHT22;63461;51.416;6.758;2023-02-12T03:39:15;8.40;99.90
74901;DHT22;63461;51.416;6.758;2023-02-12T03:41:48;8.40;99.90
74901;DHT22;63461;51.416;6.758;2023-02-12T03:44:33;8.40;99.90
74901;DHT22;63461;51.416;6.758;2023-02-12T03:52:32;8.40;99.90
74901;DHT22;63461;51.416;6.758;2023-02-12T03:54:58;8.40;99.90
74901;DHT22;63461;51.416;6.758;2023-02-12T03:57:28;8.40;99.90
74901;DHT22;63461;51.416;6.758;2023-02-12T03:59:57;8.40;99.90
74901;DHT22;63461;51.416;6.758;2023-02-12T04:02:24;8.40;99.90
74901;DHT22;63461;51.416;6.758;2023-02-12T04:04:50;8.40;99.90
74901;DHT22;63461;51.416;6.758;2023-02-12T04:07:16;8.40;99.90
74901;DHT22;63461;51.416;6.758;2023-02-12T04:09:42;8.40;99.90
74901;DHT22;63461;51.416;6.758;2023-02-12T04:15:51;8.40;99.90
74901;DHT22;63461;51.416;6.758;2023-02-12T04:17:49;8.40;99.90
74901;DHT22;63461;51.416;6.758;2023-02-12T04:20:23;8.40;99.90
74901;DHT22;63461;51.416;6.758;2023-02-12T04:23:16;8.40;99.90
74901;DHT22;63461;51.416;6.758;2023-02-12T04:25:55;8.30;99.90
74901;DHT22;63461;51.416;6.758;2023-02-12T04:36:56;8.30;99.90
74901;DHT22;63461;51.416;6.758;2023-02-12T04:39:27;8.30;99.90
74901;DHT22;63461;51.416;6.758;2023-02-12T04:41:58;8.30;99.90
74901;DHT22;63461;51.416;6.758;2023-02-12T04:44:26;8.30;99.90
74901;DHT22;63461;51.416;6.758;2023-02-12T04:46:53;8.30;99.90
74901;DHT22;63461;51.416;6.758;2023-02-12T04:49:21;8.30;99.90
74901;DHT22;63461;51.416;6.758;2023-02-12T04:51:47;8.30;99.90
74901;DHT22;63461;51.416;6.758;2023-02-12T04:54:14;8.30;99.90
74901;DHT22;63461;51.416;6.758;2023-02-12T04:56:41;8.30;99.90
74901;DHT22;63461;51.416;6.758;2023-02-12T04:59:07;8.30;99.90
74901;DHT22;63461;51.416;6.758;2023-02-12T05:01:34;8.30;99.90
74901;DHT22;63461;51.416;6.758;2023-02-12T05:04:00;8.30;99.90
74901;DHT22;63461;51.416;6.758;2023-02-12T05:06:26;8.30;99.90
74901;DHT22;63461;51.416;6.758;2023-02-12T05:08:52;8.30;99.90
74901;DHT22;63461;51.416;6.758;2023-02-12T05:11:18;8.30;99.90
74901;DHT22;63461;51.416;6.758;2023-02-12T05:13:48;8.30;99.90
74901;DHT22;63461;51.416;6.758;2023-02-12T05:16:14;8.30;99.90
74901;DHT22;63461;51.416;6.758;2023-02-12T05:18:40;8.30;99.90
74901;DHT22;63461;51.416;6.758;2023-02-12T05:21:06;8.30;99.90
74901;DHT22;63461;51.416;6.758;2023-02-12T05:23:34;8.30;99.90
74901;DHT22;63461;51.416;6.758;2023-02-12T05:26:03;8.30;99.90
74901;DHT22;63461;51.416;6.758;2023-02-12T05:28:29;8.30;99.90
74901;DHT22;63461;51.416;6.758;2023-02-12T05:31:02;8.30;99.90
74901;DHT22;63461;51.416;6.758;2023-02-12T05:33:29;8.30;99.90
74901;DHT22;63461;51.416;6.758;2023-02-12T05:35:55;8.30;99.90
74901;DHT22;63461;51.416;6.758;2023-02-12T05:38:21;8.30;99.90
74901;DHT22;63461;51.416;6.758;2023-02-12T05:40:47;8.20;99.90
74901;DHT22;63461;51.416;6.758;2023-02-12T05:43:13;8.30;99.90
74901;DHT22;63461;51.416;6.758;2023-02-12T05:45:38;8.30;99.90
74901;DHT22;63461;51.416;6.758;2023-02-12T05:48:06;8.30;99.90
74901;DHT22;63461;51.416;6.758;2023-02-12T05:50:32;8.30;99.90
74901;DHT22;63461;51.416;6.758;2023-02-12T05:52:59;8.30;99.90
74901;DHT22;63461;51.416;6.758;2023-02-12T05:55:28;8.30;99.90
74901;DHT22;63461;51.416;6.758;2023-02-12T05:57:54;8.30;99.90
74901;DHT22;63461;51.416;6.758;2023-02-12T06:00:20;8.30;99.90
74901;DHT22;63461;51.416;6.758;2023-02-12T06:02:46;8.30;99.90
74901;DHT22;63461;51.416;6.758;2023-02-12T06:05:12;8.30;99.90
74901;DHT22;63461;51.416;6.758;2023-02-12T06:07:37;8.30;99.90
74901;DHT22;63461;51.416;6.758;2023-02-12T06:10:03;8.30;99.90
74901;DHT22;63461;51.416;6.758;2023-02-12T06:12:29;8.20;99.90
74901;DHT22;63461;51.416;6.758;2023-02-12T06:14:55;8.20;99.90
74901;DHT22;63461;51.416;6.758;2023-02-12T06:17:21;8.30;99.90
74901;DHT22;63461;51.416;6.758;2023-02-12T06:19:46;8.30;99.90
74901;DHT22;63461;51.416;6.758;2023-02-12T06:22:12;8.30;99.90
74901;DHT22;63461;51.416;6.758;2023-02-12T06:24:38;8.30;99.90
74901;DHT22;63461;51.416;6.758;2023-02-12T06:27:04;8.30;99.90
74901;DHT22;63461;51.416;6.758;2023-02-12T06:29:29;8.20;99.90
74901;DHT22;63461;51.416;6.758;2023-02-12T06:31:55;8.30;99.90
74901;DHT22;63461;51.416;6.758;2023-02-12T06:34:21;8.30;99.90
74901;DHT22;63461;51.416;6.758;2023-02-12T06:36:47;8.20;99.90
74901;DHT22;63461;51.416;6.758;2023-02-12T06:39:14;8.20;99.90
74901;DHT22;63461;51.416;6.758;2023-02-12T06:41:40;8.20;99.90
74901;DHT22;63461;51.416;6.758;2023-02-12T06:44:06;8.20;99.90
74901;DHT22;63461;51.416;6.758;2023-02-12T06:46:32;8.20;99.90
74901;DHT22;63461;51.416;6.758;2023-02-12T06:48:59;8.20;99.90
74901;DHT22;63461;51.416;6.758;2023-02-12T06:51:27;8.20;99.90
74901;DHT22;63461;51.416;6.758;2023-02-12T06:53:54;8.20;99.90
74901;DHT22;63461;51.416;6.758;2023-02-12T06:56:21;8.20;99.90
74901;DHT22;63461;51.416;6.758;2023-02-12T06:58:53;8.20;99.90
74901;DHT22;63461;51.416;6.758;2023-02-12T07:01:23;8.20;99.90
74901;DHT22;63461;51.416;6.758;2023-02-12T07:03:51;8.20;99.90
74901;DHT22;63461;51.416;6.758;2023-02-12T07:06:18;8.20;99.90
74901;DHT22;63461;51.416;6.758;2023-02-12T07:08:44;8.20;99.90
74901;DHT22;63461;51.416;6.758;2023-02-12T07:11:10;8.20;99.90
74901;DHT22;63461;51.416;6.758;2023-02-12T07:13:36;8.20;99.90
74901;DHT22;63461;51.416;6.758;2023-02-12T07:16:03;8.20;99.90
74901;DHT22;63461;51.416;6.758;2023-02-12T07:18:30;8.20;99.90
74901;DHT22;63461;51.416;6.758;2023-02-12T07:20:56;8.20;99.90
74901;DHT22;63461;51.416;6.758;2023-02-12T07:23:21;8.30;99.90
74901;DHT22;63461;51.416;6.758;2023-02-12T07:25:56;8.20;99.90
74901;DHT22;63461;51.416;6.758;2023-02-12T07:28:22;8.20;99.90
74901;DHT22;63461;51.416;6.758;2023-02-12T07:30:48;8.30;99.90
74901;DHT22;63461;51.416;6.758;2023-02-12T07:33:14;8.30;99.90
74901;DHT22;63461;51.416;6.758;2023-02-12T07:35:40;8.30;99.90
74901;DHT22;63461;51.416;6.758;2023-02-12T07:38:05;8.30;99.90
74901;DHT22;63461;51.416;6.758;2023-02-12T07:40:31;8.30;99.90
74901;DHT22;63461;51.416;6.758;2023-02-12T07:42:57;8.30;99.90
74901;DHT22;63461;51.416;6.758;2023-02-12T07:45:23;8.30;99.90
74901;DHT22;63461;51.416;6.758;2023-02-12T07:47:49;8.40;99.90
74901;DHT22;63461;51.416;6.758;2023-02-12T07:50:15;8.40;99.90
74901;DHT22;63461;51.416;6.758;2023-02-12T07:52:40;8.40;99.90
74901;DHT22;63461;51.416;6.758;2023-02-12T07:55:06;8.40;99.90
74901;DHT22;63461;51.416;6.758;2023-02-12T07:57:34;8.40;99.90
74901;DHT22;63461;51.416;6.758;2023-02-12T07:59:59;8.40;99.90
74901;DHT22;63461;51.416;6.758;2023-02-12T08:02:25;8.40;99.90
74901;DHT22;63461;51.416;6.758;2023-02-12T08:04:57;8.50;99.90
74901;DHT22;63461;51.416;6.758;2023-02-12T08:07:24;8.50;99.90
74901;DHT22;63461;51.416;6.758;2023-02-12T08:09:50;8.50;99.90
74901;DHT22;63461;51.416;6.758;2023-02-12T08:12:16;8.50;99.90
74901;DHT22;63461;51.416;6.758;2023-02-12T08:14:45;8.50;99.90
74901;DHT22;63461;51.416;6.758;2023-02-12T08:17:11;8.60;99.90
74901;DHT22;63461;51.416;6.758;2023-02-12T08:19:37;8.60;99.90
74901;DHT22;63461;51.416;6.758;2023-02-12T08:22:02;8.60;99.90
74901;DHT22;63461;51.416;6.758;2023-02-12T08:24:29;8.60;99.90
74901;DHT22;63461;51.416;6.758;2023-02-12T08:26:55;8.60;99.90
74901;DHT22;63461;51.416;6.758;2023-02-12T08:29:23;8.60;99.90
74901;DHT22;63461;51.416;6.758;2023-02-12T08:31:55;8.60;99.90
74901;DHT22;63461;51.416;6.758;2023-02-12T08:34:26;8.70;99.90
74901;DHT22;63461;51.416;6.758;2023-02-12T08:36:54;8.70;99.90
74901;DHT22;63461;51.416;6.758;2023-02-12T08:39:20;8.70;99.90
74901;DHT22;63461;51.416;6.758;2023-02-12T08:41:47;8.80;99.90
74901;DHT22;63461;51.416;6.758;2023-02-12T08:44:14;8.80;99.90
74901;DHT22;63461;51.416;6.758;2023-02-12T08:46:43;8.80;99.90
74901;DHT22;63461;51.416;6.758;2023-02-12T08:49:13;8.90;99.90
74901;DHT22;63461;51.416;6.758;2023-02-12T08:51:42;8.90;99.90
74901;DHT22;63461;51.416;6.758;2023-02-12T08:54:11;8.90;99.90
74901;DHT22;63461;51.416;6.758;2023-02-12T08:56:37;9.00;99.90
74901;DHT22;63461;51.416;6.758;2023-02-12T08:59:04;9.00;99.90
74901;DHT22;63461;51.416;6.758;2023-02-12T09:01:32;9.00;99.90
74901;DHT22;63461;51.416;6.758;2023-02-12T09:04:01;9.00;99.90
74901;DHT22;63461;51.416;6.758;2023-02-12T09:06:27;9.10;99.90
74901;DHT22;63461;51.416;6.758;2023-02-12T09:08:54;9.20;99.90
74901;DHT22;63461;51.416;6.758;2023-02-12T09:11:22;9.20;99.90
74901;DHT22;63461;51.416;6.758;2023-02-12T09:13:51;9.20;99.90
74901;DHT22;63461;51.416;6.758;2023-02-12T09:16:17;9.20;99.90
74901;DHT22;63461;51.416;6.758;2023-02-12T09:18:43;9.20;99.90
74901;DHT22;63461;51.416;6.758;2023-02-12T09:21:14;9.30;99.90
74901;DHT22;63461;51.416;6.758;2023-02-12T09:23:42;9.30;99.90
74901;DHT22;63461;51.416;6.758;2023-02-12T09:26:12;9.30;99.90
74901;DHT22;63461;51.416;6.758;2023-02-12T09:28:40;9.30;99.90
74901;DHT22;63461;51.416;6.758;2023-02-12T09:31:18;9.40;99.90
74901;DHT22;63461;51.416;6.758;2023-02-12T09:33:45;9.50;99.90
74901;DHT22;63461;51.416;6.758;2023-02-12T09:36:14;9.50;99.90
74901;DHT22;63461;51.416;6.758;2023-02-12T09:38:41;9.50;99.90
74901;DHT22;63461;51.416;6.758;2023-02-12T09:44:06;9.60;99.90
74901;DHT22;63461;51.416;6.758;2023-02-12T09:49:11;9.70;99.90
74901;DHT22;63461;51.416;6.758;2023-02-12T09:51:44;9.60;99.90
74901;DHT22;63461;51.416;6.758;2023-02-12T09:54:14;9.70;99.90
74901;DHT22;63461;51.416;6.758;2023-02-12T09:56:45;9.70;99.90
74901;DHT22;63461;51.416;6.758;2023-02-12T09:59:59;9.80;99.90
74901;DHT22;63461;51.416;6.758;2023-02-12T10:02:17;9.90;99.90
74901;DHT22;63461;51.416;6.758;2023-02-12T10:04:45;9.80;99.90
74901;DHT22;63461;51.416;6.758;2023-02-12T10:15:33;10.00;99.90
74901;DHT22;63461;51.416;6.758;2023-02-12T10:18:30;10.00;99.90
74901;DHT22;63461;51.416;6.758;2023-02-12T10:21:07;10.00;99.90
74901;DHT22;63461;51.416;6.758;2023-02-12T10:23:40;10.10;99.90
74901;DHT22;63461;51.416;6.758;2023-02-12T10:26:21;10.10;99.90
74901;DHT22;63461;51.416;6.758;2023-02-12T10:28:51;10.20;99.90
74901;DHT22;63461;51.416;6.758;2023-02-12T10:31:30;10.20;99.90
74901;DHT22;63461;51.416;6.758;2023-02-12T10:33:57;10.20;99.90
74901;DHT22;63461;51.416;6.758;2023-02-12T10:36:40;10.20;99.90
74901;DHT22;63461;51.416;6.758;2023-02-12T10:39:11;10.30;99.90
74901;DHT22;63461;51.416;6.758;2023-02-12T10:41:51;10.30;99.90
74901;DHT22;63461;51.416;6.758;2023-02-12T10:44:17;10.40;99.90
74901;DHT22;63461;51.416;6.758;2023-02-12T10:46:43;10.40;99.90
74901;DHT22;63461;51.416;6.758;2023-02-12T10:49:11;10.30;99.90
74901;DHT22;63461;51.416;6.758;2023-02-12T10:52:10;10.30;99.90
74901;DHT22;63461;51.416;6.758;2023-02-12T10:54:45;10.30;99.90
74901;DHT22;63461;51.416;6.758;2023-02-12T10:57:22;10.30;99.90
74901;DHT22;63461;51.416;6.758;2023-02-12T10:59:52;10.50;99.90
74901;DHT22;63461;51.416;6.758;2023-02-12T11:02:27;10.50;99.90
74901;DHT22;63461;51.416;6.758;2023-02-12T11:04:55;10.60;99.90
74901;DHT22;63461;51.416;6.758;2023-02-12T11:07:21;10.60;99.90
74901;DHT22;63461;51.416;6.758;2023-02-12T11:09:49;10.60;99.90
74901;DHT22;63461;51.416;6.758;2023-02-12T11:12:20;10.60;99.90
74901;DHT22;63461;51.416;6.758;2023-02-12T11:14:53;10.60;99.90
74901;DHT22;63461;51.416;6.758;2023-02-12T11:17:29;10.60;99.90
74901;DHT22;63461;51.416;6.758;2023-02-12T11:22:50;10.70;99.90
74901;DHT22;63461;51.416;6.758;2023-02-12T11:25:17;10.70;99.90
74901;DHT22;63461;51.416;6.758;2023-02-12T11:27:44;10.70;99.90
74901;DHT22;63461;51.416;6.758;2023-02-12T11:30:20;10.70;99.90
74901;DHT22;63461;51.416;6.758;2023-02-12T11:32:46;10.70;99.90
74901;DHT22;63461;51.416;6.758;2023-02-12T11:35:15;10.60;99.90
74901;DHT22;63461;51.416;6.758;2023-02-12T11:37:46;10.60;99.90
74901;DHT22;63461;51.416;6.758;2023-02-12T11:40:25;10.60;99.90
74901;DHT22;63461;51.416;6.758;2023-02-12T11:42:58;10.70;99.90
74901;DHT22;63461;51.416;6.758;2023-02-12T11:45:29;10.80;99.90
74901;DHT22;63461;51.416;6.758;2023-02-12T11:47:57;10.70;99.90
74901;DHT22;63461;51.416;6.758;2023-02-12T11:52:57;10.80;99.90
74901;DHT22;63461;51.416;6.758;2023-02-12T11:55:27;10.80;99.90
74901;DHT22;63461;51.416;6.758;2023-02-12T11:58:06;10.90;99.90
74901;DHT22;63461;51.416;6.758;2023-02-12T12:08:47;10.80;99.90
74901;DHT22;63461;51.416;6.758;2023-02-12T12:11:24;10.90;99.90
74901;DHT22;63461;51.416;6.758;2023-02-12T12:13:52;10.80;99.90
74901;DHT22;63461;51.416;6.758;2023-02-12T12:19:28;10.80;99.90
74901;DHT22;63461;51.416;6.758;2023-02-12T12:27:50;10.80;99.90
74901;DHT22;63461;51.416;6.758;2023-02-12T12:33:28;10.80;99.90
74901;DHT22;63461;51.416;6.758;2023-02-12T12:36:03;10.90;99.90
74901;DHT22;63461;51.416;6.758;2023-02-12T12:58:14;11.00;99.90
74901;DHT22;63461;51.416;6.758;2023-02-12T13:27:50;11.10;99.90
74901;DHT22;63461;51.416;6.758;2023-02-12T13:30:21;11.10;99.90
74901;DHT22;63461;51.416;6.758;2023-02-12T13:35:40;11.10;99.90
74901;DHT22;63461;51.416;6.758;2023-02-12T13:38:07;11.10;99.90
74901;DHT22;63461;51.416;6.758;2023-02-12T13:40:36;11.10;99.90
74901;DHT22;63461;51.416;6.758;2023-02-12T13:48:53;11.10;99.90
74901;DHT22;63461;51.416;6.758;2023-02-12T13:57:01;11.10;99.90
74901;DHT22;63461;51.416;6.758;2023-02-12T14:01:58;11.00;99.90
74901;DHT22;63461;51.416;6.758;2023-02-12T14:04:30;11.00;99.90
74901;DHT22;63461;51.416;6.758;2023-02-12T14:07:03;11.00;99.90
74901;DHT22;63461;51.416;6.758;2023-02-12T14:12:00;10.90;99.90
74901;DHT22;63461;51.416;6.758;2023-02-12T14:14:33;11.00;99.90
74901;DHT22;63461;51.416;6.758;2023-02-12T14:30:33;10.80;99.90
74901;DHT22;63461;51.416;6.758;2023-02-12T14:35:41;10.90;99.90
74901;DHT22;63461;51.416;6.758;2023-02-12T14:40:41;10.90;99.90
74901;DHT22;63461;51.416;6.758;2023-02-12T14:43:36;10.90;99.90
74901;DHT22;63461;51.416;6.758;2023-02-12T14:48:54;10.90;99.90
74901;DHT22;63461;51.416;6.758;2023-02-12T14:51:30;10.90;99.90
74901;DHT22;63461;51.416;6.758;2023-02-12T14:53:58;10.90;99.90
74901;DHT22;63461;51.416;6.758;2023-02-12T14:56:25;10.90;99.90
74901;DHT22;63461;51.416;6.758;2023-02-12T14:58:53;10.80;99.90
74901;DHT22;63461;51.416;6.758;2023-02-12T15:01:32;10.80;99.90
74901;DHT22;63461;51.416;6.758;2023-02-12T15:04:09;10.90;99.90
74901;DHT22;63461;51.416;6.758;2023-02-12T15:06:42;10.80;99.90
74901;DHT22;63461;51.416;6.758;2023-02-12T15:09:12;10.80;99.90
74901;DHT22;63461;51.416;6.758;2023-02-12T15:11:49;10.80;99.90
74901;DHT22;63461;51.416;6.758;2023-02-12T15:14:27;10.80;99.90
74901;DHT22;63461;51.416;6.758;2023-02-12T15:19:49;10.80;99.90
74901;DHT22;63461;51.416;6.758;2023-02-12T15:24:46;10.80;99.90
74901;DHT22;63461;51.416;6.758;2023-02-12T15:27:13;10.80;99.90
74901;DHT22;63461;51.416;6.758;2023-02-12T15:29:43;10.80;99.90
74901;DHT22;63461;51.416;6.758;2023-02-12T15:32:28;10.80;99.90
74901;DHT22;63461;51.416;6.758;2023-02-12T15:34:55;10.70;99.90
74901;DHT22;63461;51.416;6.758;2023-02-12T15:37:24;10.70;99.90
74901;DHT22;63461;51.416;6.758;2023-02-12T15:39:53;10.70;99.90
74901;DHT22;63461;51.416;6.758;2023-02-12T15:42:35;10.70;99.90
74901;DHT22;63461;51.416;6.758;2023-02-12T15:45:18;10.70;99.90
74901;DHT22;63461;51.416;6.758;2023-02-12T15:47:58;10.70;99.90
74901;DHT22;63461;51.416;6.758;2023-02-12T15:50:25;10.60;99.90
74901;DHT22;63461;51.416;6.758;2023-02-12T15:52:52;10.60;99.90
74901;DHT22;63461;51.416;6.758;2023-02-12T15:55:23;10.60;99.90
74901;DHT22;63461;51.416;6.758;2023-02-12T15:57:55;10.60;99.90
74901;DHT22;63461;51.416;6.758;2023-02-12T16:00:31;10.60;99.90
74901;DHT22;63461;51.416;6.758;2023-02-12T16:02:59;10.60;99.90
74901;DHT22;63461;51.416;6.758;2023-02-12T16:05:26;10.60;99.90
74901;DHT22;63461;51.416;6.758;2023-02-12T16:07:52;10.60;99.90
74901;DHT22;63461;51.416;6.758;2023-02-12T16:10:19;10.60;99.90
74901;DHT22;63461;51.416;6.758;2023-02-12T16:12:46;10.60;99.90
74901;DHT22;63461;51.416;6.758;2023-02-12T16:15:30;10.50;99.90
74901;DHT22;63461;51.416;6.758;2023-02-12T16:17:57;10.50;99.90
74901;DHT22;63461;51.416;6.758;2023-02-12T16:20:26;10.50;99.90
74901;DHT22;63461;51.416;6.758;2023-02-12T16:22:54;10.50;99.90
74901;DHT22;63461;51.416;6.758;2023-02-12T16:25:28;10.50;99.90
74901;DHT22;63461;51.416;6.758;2023-02-12T16:28:07;10.50;99.90
74901;DHT22;63461;51.416;6.758;2023-02-12T16:30:41;10.50;99.90
74901;DHT22;63461;51.416;6.758;2023-02-12T16:38:46;10.40;99.90
74901;DHT22;63461;51.416;6.758;2023-02-12T16:46:27;10.40;99.90
74901;DHT22;63461;51.416;6.758;2023-02-12T16:48:55;10.40;99.90
74901;DHT22;63461;51.416;6.758;2023-02-12T16:51:32;10.40;99.90
74901;DHT22;63461;51.416;6.758;2023-02-12T16:54:00;10.40;99.90
74901;DHT22;63461;51.416;6.758;2023-02-12T16:56:30;10.40;99.90
74901;DHT22;63461;51.416;6.758;2023-02-12T16:58:59;10.40;99.90
74901;DHT22;63461;51.416;6.758;2023-02-12T17:01:30;10.40;99.90
74901;DHT22;63461;51.416;6.758;2023-02-12T17:04:00;10.30;99.90
74901;DHT22;63461;51.416;6.758;2023-02-12T17:06:28;10.40;99.90
74901;DHT22;63461;51.416;6.758;2023-02-12T17:08:55;10.40;99.90
74901;DHT22;63461;51.416;6.758;2023-02-12T17:11:22;10.30;99.90
74901;DHT22;63461;51.416;6.758;2023-02-12T17:13:50;10.30;99.90
74901;DHT22;63461;51.416;6.758;2023-02-12T17:16:16;10.30;99.90
74901;DHT22;63461;51.416;6.758;2023-02-12T17:18:42;10.30;99.90
74901;DHT22;63461;51.416;6.758;2023-02-12T17:21:22;10.30;99.90
74901;DHT22;63461;51.416;6.758;2023-02-12T17:23:48;10.30;99.90
74901;DHT22;63461;51.416;6.758;2023-02-12T17:26:14;10.30;99.90
74901;DHT22;63461;51.416;6.758;2023-02-12T17:28:40;10.30;99.90
74901;DHT22;63461;51.416;6.758;2023-02-12T17:31:08;10.30;99.90
74901;DHT22;63461;51.416;6.758;2023-02-12T17:33:34;10.30;99.90
74901;DHT22;63461;51.416;6.758;2023-02-12T17:36:00;10.30;99.90
74901;DHT22;63461;51.416;6.758;2023-02-12T17:38:26;10.20;99.90
74901;DHT22;63461;51.416;6.758;2023-02-12T17:40:51;10.20;99.90
74901;DHT22;63461;51.416;6.758;2023-02-12T17:43:18;10.20;99.90
74901;DHT22;63461;51.416;6.758;2023-02-12T17:45:44;10.20;99.90
74901;DHT22;63461;51.416;6.758;2023-02-12T17:48:14;10.20;99.90
74901;DHT22;63461;51.416;6.758;2023-02-12T17:50:40;10.20;99.90
74901;DHT22;63461;51.416;6.758;2023-02-12T17:53:06;10.20;99.90
74901;DHT22;63461;51.416;6.758;2023-02-12T17:55:33;10.20;99.90
74901;DHT22;63461;51.416;6.758;2023-02-12T17:58:02;10.20;99.90
74901;DHT22;63461;51.416;6.758;2023-02-12T18:00:28;10.20;99.90
74901;DHT22;63461;51.416;6.758;2023-02-12T18:02:54;10.20;99.90
74901;DHT22;63461;51.416;6.758;2023-02-12T18:05:20;10.20;99.90
74901;DHT22;63461;51.416;6.758;2023-02-12T18:07:46;10.20;99.90
74901;DHT22;63461;51.416;6.758;2023-02-12T18:10:12;10.10;99.90
74901;DHT22;63461;51.416;6.758;2023-02-12T18:12:38;10.10;99.90
74901;DHT22;63461;51.416;6.758;2023-02-12T18:15:06;10.10;99.90
74901;DHT22;63461;51.416;6.758;2023-02-12T18:17:33;10.10;99.90
74901;DHT22;63461;51.416;6.758;2023-02-12T18:19:59;10.10;99.90
74901;DHT22;63461;51.416;6.758;2023-02-12T18:22:25;10.10;99.90
74901;DHT22;63461;51.416;6.758;2023-02-12T18:24:51;10.10;99.90
74901;DHT22;63461;51.416;6.758;2023-02-12T18:27:17;10.10;99.90
74901;DHT22;63461;51.416;6.758;2023-02-12T18:29:43;10.10;99.90
74901;DHT22;63461;51.416;6.758;2023-02-12T18:32:09;10.10;99.90
74901;DHT22;63461;51.416;6.758;2023-02-12T18:34:43;10.10;99.90
74901;DHT22;63461;51.416;6.758;2023-02-12T18:37:11;10.10;99.90
74901;DHT22;63461;51.416;6.758;2023-02-12T18:39:37;10.00;99.90
74901;DHT22;63461;51.416;6.758;2023-02-12T18:42:03;10.00;99.90
74901;DHT22;63461;51.416;6.758;2023-02-12T18:44:29;10.10;99.90
74901;DHT22;63461;51.416;6.758;2023-02-12T18:46:55;10.10;99.90
74901;DHT22;63461;51.416;6.758;2023-02-12T18:49:24;10.00;99.90
74901;DHT22;63461;51.416;6.758;2023-02-12T18:51:50;10.00;99.90
74901;DHT22;63461;51.416;6.758;2023-02-12T18:54:15;10.10;99.90
74901;DHT22;63461;51.416;6.758;2023-02-12T18:56:43;10.10;99.90